MMTP/TAP METAR and TAF weather

Enter ICAO airport designator
Station Type Date Time Source
MMTP METAR 2018/12/17 15:40 UTC NOAA

MMTP 171540Z 00000KT 10SM SCT220 30/21 A3001 RMK 8/001


Station Type Date Time Source
MMTP Decoded METAR 2018/12/17 15:40 UTC NOAA

Tapachula , Mexico (MMTP) 14-47N 092-23W
Dec 17, 2018 - 10:40 AM EST / 2018.12.17 1540 UTC
Wind: Calm:0
Visibility: 10 mile(s):0
Sky conditions: partly cloudy
Temperature: 86 F (30 C)
Dew Point: 69 F (21 C)
Relative Humidity: 58%
Pressure (altimeter): 30.01 in. Hg (1016 hPa)
ob: MMTP 171540Z 00000KT 10SM SCT220 30/21 A3001 RMK 8/001
cycle: 15

Station Type Date Time Source
MMTP TAF 2018/12/17 12:32 UTC NOAA

TAF MMTP 171025Z 1712/1818 00000KT P6SM SCT120
FM171800 23010KT P6SM SCT030 BKN120 BKN250
FM180600 00000KT P6SM SCT120
FM181700 23010KT P6SM SCT030 BKN120 BKN250


Example: see airport list